Time;durP1;ratioP1;P1;durP2;ratioP2;P2;SDS_P1;SDS_P2;PMS_P1;PMS_P2;Temp;Humidity;BMP_temperature;BMP_pressure;BME280_temperature;BME280_humidity;BME280_pressure;Samples;Min_cycle;Max_cycle;Signal;HPM_P1;HPM_P2
2022/09/12 00:01:11;;;;;;;3.33;2.03;;;12.40;99.90;;;;;;4993244;28;20513;-83
2022/09/12 00:03:40;;;;;;;3.70;2.47;;;12.30;99.90;;;;;;4993390;28;20231;-82
2022/09/12 00:06:20;;;;;;;4.80;1.50;;;12.20;99.90;;;;;;4992423;28;20419;-81
2022/09/12 00:08:45;;;;;;;3.33;1.80;;;12.20;99.90;;;;;;4993496;28;20529;-82
2022/09/12 00:11:12;;;;;;;2.73;1.47;;;12.20;99.90;;;;;;5008898;28;20454;-81
2022/09/12 00:13:41;;;;;;;2.33;0.97;;;12.10;99.90;;;;;;5013081;28;20188;-82
2022/09/12 00:16:14;;;;;;;2.33;1.83;;;12.10;99.90;;;;;;5027940;28;20914;-82
2022/09/12 00:18:40;;;;;;;4.60;2.00;;;12.00;99.90;;;;;;5013087;28;20566;-82
2022/09/12 00:21:05;;;;;;;2.80;1.73;;;12.00;99.90;;;;;;5011804;28;20511;-82
2022/09/12 00:23:34;;;;;;;3.37;1.53;;;11.90;99.90;;;;;;5015650;28;20183;-82
2022/09/12 00:26:04;;;;;;;1.80;1.17;;;11.90;99.90;;;;;;5017132;28;20586;-82
2022/09/12 00:28:31;;;;;;;2.43;1.67;;;11.90;99.90;;;;;;5016916;28;20802;-82
2022/09/12 00:30:57;;;;;;;3.57;2.10;;;11.90;99.90;;;;;;5016599;28;20818;-82
2022/09/12 00:33:22;;;;;;;3.03;1.67;;;11.90;99.90;;;;;;5016846;28;20433;-82
2022/09/12 00:35:51;;;;;;;2.00;0.93;;;11.80;99.90;;;;;;5016988;28;20575;-82
2022/09/12 00:38:19;;;;;;;4.27;1.50;;;11.80;99.90;;;;;;5016708;28;20183;-82
2022/09/12 00:40:45;;;;;;;3.67;1.90;;;11.80;99.90;;;;;;5016702;28;20468;-82
2022/09/12 00:43:13;;;;;;;4.40;1.63;;;11.80;99.90;;;;;;5016703;28;20428;-82
2022/09/12 00:45:41;;;;;;;2.83;1.90;;;11.70;99.90;;;;;;5016330;28;20421;-82
2022/09/12 00:48:20;;;;;;;1.97;1.70;;;11.70;99.90;;;;;;5016390;28;20564;-82
2022/09/12 00:50:45;;;;;;;2.03;0.90;;;11.70;99.90;;;;;;5016516;28;20420;-82
2022/09/12 00:53:11;;;;;;;2.20;0.90;;;11.60;99.90;;;;;;5016597;28;20414;-83
2022/09/12 00:55:48;;;;;;;2.50;1.27;;;11.60;99.90;;;;;;5016441;28;20192;-82
2022/09/12 00:58:25;;;;;;;3.20;1.10;;;11.50;99.90;;;;;;5031754;28;20184;-83
2022/09/12 01:00:50;;;;;;;2.40;1.43;;;11.60;99.90;;;;;;5016112;28;20920;-83
2022/09/12 01:03:20;;;;;;;1.67;0.70;;;11.50;99.90;;;;;;5016332;28;20420;-83
2022/09/12 01:05:55;;;;;;;4.00;1.43;;;11.50;99.90;;;;;;5016413;28;20277;-83
2022/09/12 01:08:21;;;;;;;3.17;1.40;;;11.50;99.90;;;;;;5016300;28;20559;-83
2022/09/12 01:10:48;;;;;;;4.43;1.60;;;11.50;99.90;;;;;;5015998;28;20453;-83
2022/09/12 01:13:13;;;;;;;2.47;1.43;;;11.50;99.90;;;;;;5016097;28;20476;-83
2022/09/12 01:15:39;;;;;;;2.37;1.40;;;11.50;99.90;;;;;;5015776;28;20755;-84
2022/09/12 01:18:23;;;;;;;2.43;1.13;;;11.40;99.90;;;;;;5016047;28;20163;-84
2022/09/12 01:21:23;;;;;;;3.67;1.70;;;11.40;99.90;;;;;;5016050;28;20525;-83
2022/09/12 01:24:10;;;;;;;2.80;2.03;;;11.50;99.90;;;;;;5016024;28;20410;-83
2022/09/12 01:27:08;;;;;;;2.63;1.20;;;11.40;99.90;;;;;;5016063;28;20509;-84
2022/09/12 01:30:15;;;;;;;2.30;1.27;;;11.40;99.90;;;;;;5015492;28;20930;-84
2022/09/12 01:32:46;;;;;;;2.30;1.17;;;11.40;99.90;;;;;;5015870;28;20417;-83
2022/09/12 01:35:41;;;;;;;2.07;1.50;;;11.40;99.90;;;;;;5015523;28;20414;-84
2022/09/12 01:38:16;;;;;;;3.03;1.53;;;11.30;99.90;;;;;;5015170;28;20414;-82
2022/09/12 01:40:58;;;;;;;2.97;0.83;;;11.30;99.90;;;;;;5015530;28;20415;-83
2022/09/12 01:43:30;;;;;;;2.23;1.10;;;11.30;99.90;;;;;;5030797;28;20857;-84
2022/09/12 01:46:17;;;;;;;2.97;1.50;;;11.30;99.90;;;;;;5015150;28;20902;-82
2022/09/12 01:48:56;;;;;;;2.07;1.60;;;11.20;99.90;;;;;;5015491;28;20480;-82
2022/09/12 01:51:32;;;;;;;3.17;1.20;;;11.20;99.90;;;;;;5014291;28;20431;-82
2022/09/12 01:54:12;;;;;;;2.33;1.37;;;11.20;99.90;;;;;;5030654;28;20426;-82
2022/09/12 01:56:40;;;;;;;2.23;0.90;;;11.10;99.90;;;;;;5015435;28;20420;-82
2022/09/12 01:59:14;;;;;;;2.70;1.50;;;11.10;99.90;;;;;;5014926;28;20434;-82
2022/09/12 02:01:49;;;;;;;2.50;1.50;;;11.10;99.90;;;;;;5015272;28;20424;-82
2022/09/12 02:04:19;;;;;;;3.80;1.90;;;11.10;99.90;;;;;;5015101;28;20452;-82
2022/09/12 02:06:54;;;;;;;2.33;1.03;;;11.00;99.90;;;;;;5015293;28;20770;-82
2022/09/12 02:09:30;;;;;;;1.77;1.40;;;11.00;99.90;;;;;;5014977;28;20868;-81
2022/09/12 02:11:59;;;;;;;3.17;1.10;;;11.00;99.90;;;;;;5015282;28;20772;-82
2022/09/12 02:14:32;;;;;;;2.37;1.63;;;11.00;99.90;;;;;;5014679;28;20942;-82
2022/09/12 02:17:04;;;;;;;2.27;1.73;;;11.00;99.90;;;;;;5015096;28;20412;-82
2022/09/12 02:19:35;;;;;;;1.90;1.40;;;10.90;99.90;;;;;;5014836;28;20414;-82
2022/09/12 02:22:03;;;;;;;2.10;1.27;;;10.90;99.90;;;;;;5014942;28;20420;-82
2022/09/12 02:24:36;;;;;;;1.73;1.37;;;10.80;99.90;;;;;;5029869;28;20422;-82
2022/09/12 02:27:19;;;;;;;3.10;1.60;;;10.80;99.90;;;;;;5014363;28;20421;-82
2022/09/12 02:29:45;;;;;;;3.20;1.33;;;10.80;99.90;;;;;;5014348;28;20777;-82
2022/09/12 02:32:33;;;;;;;2.90;1.27;;;10.80;99.90;;;;;;5014725;28;20432;-82
2022/09/12 02:35:02;;;;;;;2.20;1.37;;;10.80;99.90;;;;;;5014631;28;20410;-82
2022/09/12 02:37:33;;;;;;;3.07;1.40;;;10.80;99.90;;;;;;5014492;28;20415;-82
2022/09/12 02:39:59;;;;;;;2.80;1.17;;;10.80;99.90;;;;;;5014421;28;20417;-82
2022/09/12 02:42:28;;;;;;;3.80;1.40;;;10.70;99.90;;;;;;5014316;28;20446;-82
2022/09/12 02:44:58;;;;;;;4.20;1.47;;;10.70;99.90;;;;;;5013341;28;20424;-82
2022/09/12 02:47:33;;;;;;;2.13;1.57;;;10.80;99.90;;;;;;5029754;28;20411;-82
2022/09/12 02:49:59;;;;;;;2.00;1.60;;;10.80;99.90;;;;;;5014292;28;20474;-82
2022/09/12 02:52:27;;;;;;;2.20;1.37;;;10.80;99.90;;;;;;5014228;28;20400;-82
2022/09/12 02:54:54;;;;;;;1.63;1.23;;;10.90;99.90;;;;;;5014295;28;20768;-82
2022/09/12 02:57:20;;;;;;;2.50;1.67;;;10.90;99.90;;;;;;5029442;28;20421;-82
2022/09/12 02:59:48;;;;;;;3.27;1.83;;;10.90;99.90;;;;;;5013791;28;20413;-82
2022/09/12 03:02:51;;;;;;;2.47;1.40;;;10.90;99.90;;;;;;5029392;28;20414;-82
2022/09/12 03:05:33;;;;;;;2.40;1.27;;;10.90;99.90;;;;;;5012866;28;20420;-82
2022/09/12 03:08:28;;;;;;;2.60;1.23;;;10.90;99.90;;;;;;5014075;28;20823;-82
2022/09/12 03:11:38;;;;;;;3.50;1.50;;;11.00;99.90;;;;;;5003965;28;20469;-82
2022/09/12 03:14:48;;;;;;;3.87;1.80;;;11.10;99.90;;;;;;5011586;28;20428;-81
2022/09/12 03:17:48;;;;;;;3.07;1.47;;;11.20;99.90;;;;;;5013179;28;20748;-82
2022/09/12 03:20:24;;;;;;;2.20;1.20;;;11.00;99.90;;;;;;5012958;28;20503;-82
2022/09/12 03:22:55;;;;;;;3.17;1.63;;;11.00;99.90;;;;;;5013046;28;20418;-82
2022/09/12 03:25:47;;;;;;;2.77;1.40;;;10.90;99.90;;;;;;5012902;28;20482;-83
2022/09/12 03:28:17;;;;;;;2.33;1.43;;;10.80;99.90;;;;;;5012941;28;20452;-82
2022/09/12 03:30:46;;;;;;;2.67;1.50;;;10.90;99.90;;;;;;5012749;28;20426;-81
2022/09/12 03:33:14;;;;;;;2.33;1.53;;;10.90;99.90;;;;;;5012652;28;20768;-82
2022/09/12 03:35:40;;;;;;;4.10;1.73;;;10.80;99.90;;;;;;5012626;28;20450;-83
2022/09/12 03:38:06;;;;;;;2.37;1.80;;;10.80;99.90;;;;;;5012754;28;20494;-81
2022/09/12 03:40:33;;;;;;;2.67;1.70;;;10.80;99.90;;;;;;5012791;28;20165;-81
2022/09/12 03:42:58;;;;;;;2.10;1.13;;;10.80;99.90;;;;;;5027846;28;20804;-82
2022/09/12 03:45:24;;;;;;;4.47;1.90;;;10.80;99.90;;;;;;5012240;28;20423;-81
2022/09/12 03:47:49;;;;;;;2.70;1.63;;;10.80;99.90;;;;;;5012579;28;20168;-81
2022/09/12 03:50:15;;;;;;;2.20;1.40;;;10.90;99.90;;;;;;5012633;28;20253;-81
2022/09/12 03:52:40;;;;;;;2.60;1.50;;;10.80;99.90;;;;;;5012558;28;20164;-81
2022/09/12 03:55:06;;;;;;;2.93;1.67;;;10.80;99.90;;;;;;5012558;28;20575;-81
2022/09/12 03:57:32;;;;;;;2.10;0.93;;;10.80;99.90;;;;;;5012437;28;20172;-81
2022/09/12 03:59:57;;;;;;;2.20;1.20;;;10.80;99.90;;;;;;5012146;28;20656;-82
2022/09/12 04:02:23;;;;;;;3.80;1.40;;;10.80;99.90;;;;;;5012395;28;20231;-81
2022/09/12 04:04:48;;;;;;;2.77;2.00;;;10.90;99.90;;;;;;5027630;28;20580;-82
2022/09/12 04:07:15;;;;;;;1.70;0.90;;;11.20;99.90;;;;;;5012469;28;20283;-82
2022/09/12 04:11:54;;;;;;;2.13;1.07;;;11.20;99.90;;;;;;5070157;28;20570;-82
2022/09/12 04:14:20;;;;;;;3.10;1.50;;;11.10;99.90;;;;;;5069949;28;20908;-84
2022/09/12 04:16:45;;;;;;;4.73;1.63;;;11.00;99.90;;;;;;5082034;28;20215;-84
2022/09/12 04:19:11;;;;;;;2.40;1.37;;;11.00;99.90;;;;;;5070332;28;20169;-83
2022/09/12 04:21:36;;;;;;;2.30;1.43;;;11.00;99.90;;;;;;5071594;28;20199;-83
2022/09/12 04:24:11;;;;;;;1.73;0.80;;;11.00;99.90;;;;;;5070956;28;20259;-82
2022/09/12 04:26:36;;;;;;;1.73;0.60;;;11.00;99.90;;;;;;5070232;28;20168;-83
2022/09/12 04:29:02;;;;;;;2.37;1.20;;;11.00;99.90;;;;;;5069589;28;21040;-83
2022/09/12 04:31:28;;;;;;;1.20;0.63;;;11.00;99.90;;;;;;5069761;28;20219;-83
2022/09/12 04:34:04;;;;;;;1.70;0.93;;;11.00;99.90;;;;;;5069804;28;20606;-83
2022/09/12 04:36:30;;;;;;;1.90;0.90;;;10.90;99.90;;;;;;5069167;28;20184;-82
2022/09/12 04:38:55;;;;;;;3.40;1.03;;;10.90;99.90;;;;;;5068512;28;20502;-82
2022/09/12 04:41:29;;;;;;;1.87;1.27;;;11.00;99.90;;;;;;5069626;28;20431;-83
2022/09/12 04:44:03;;;;;;;2.20;1.03;;;11.00;99.90;;;;;;5069359;28;20173;-83
2022/09/12 04:46:31;;;;;;;4.20;1.20;;;10.90;99.90;;;;;;5069677;28;20418;-83
2022/09/12 04:48:56;;;;;;;2.23;1.97;;;10.90;99.90;;;;;;5069668;28;20952;-83
2022/09/12 04:51:26;;;;;;;4.17;1.60;;;11.00;99.90;;;;;;5069349;28;20482;-83
2022/09/12 04:53:54;;;;;;;2.73;1.50;;;10.90;99.90;;;;;;5069662;28;20177;-82
2022/09/12 04:56:21;;;;;;;2.97;2.10;;;11.00;99.90;;;;;;5069325;28;20450;-84
2022/09/12 04:58:48;;;;;;;4.00;2.30;;;11.00;99.90;;;;;;5068847;28;20424;-84
2022/09/12 05:01:20;;;;;;;5.30;2.13;;;11.00;99.90;;;;;;5069224;28;20417;-83
2022/09/12 05:03:47;;;;;;;3.63;1.97;;;10.90;99.90;;;;;;5069186;28;20926;-85
2022/09/12 05:06:22;;;;;;;4.93;1.70;;;11.00;99.90;;;;;;5069198;28;20422;-84
2022/09/12 05:08:48;;;;;;;4.30;2.03;;;11.00;99.90;;;;;;5069152;28;20401;-84
2022/09/12 05:11:17;;;;;;;7.43;2.10;;;11.00;99.90;;;;;;5068572;28;20990;-85
2022/09/12 05:13:43;;;;;;;2.60;1.67;;;11.00;99.90;;;;;;5068469;28;20628;-83
2022/09/12 05:16:11;;;;;;;2.37;1.67;;;11.00;99.90;;;;;;5068689;28;20516;-82
2022/09/12 05:18:37;;;;;;;7.20;2.17;;;10.90;99.90;;;;;;5068705;28;20422;-83
2022/09/12 05:21:08;;;;;;;4.10;1.63;;;10.90;99.90;;;;;;5067936;28;20895;-83
2022/09/12 05:23:34;;;;;;;3.00;1.70;;;10.90;99.90;;;;;;5053696;28;20257;-83
2022/09/12 05:26:00;;;;;;;3.83;1.60;;;11.00;99.90;;;;;;5052910;28;20411;-84
2022/09/12 05:28:35;;;;;;;2.10;1.50;;;11.00;99.90;;;;;;5053781;28;20415;-83
2022/09/12 05:31:03;;;;;;;3.30;2.13;;;11.00;99.90;;;;;;5054650;28;20501;-84
2022/09/12 05:33:29;;;;;;;2.33;1.53;;;11.00;99.90;;;;;;5053475;28;20474;-84
2022/09/12 05:35:55;;;;;;;3.10;1.60;;;11.00;99.90;;;;;;5055245;28;20416;-83
2022/09/12 05:38:20;;;;;;;3.83;2.90;;;11.10;99.90;;;;;;5054472;28;20432;-83
2022/09/12 05:40:46;;;;;;;4.80;1.17;;;11.20;99.90;;;;;;5057883;28;20610;-83
2022/09/12 05:43:11;;;;;;;3.77;1.70;;;11.30;99.90;;;;;;5054314;28;20233;-83
2022/09/12 05:45:37;;;;;;;4.70;2.17;;;11.30;99.90;;;;;;5053890;28;20681;-83
2022/09/12 05:48:03;;;;;;;3.30;1.83;;;11.30;99.90;;;;;;5055079;28;20215;-84
2022/09/12 05:50:29;;;;;;;3.20;2.03;;;11.30;99.90;;;;;;5055492;28;20466;-83
2022/09/12 05:52:55;;;;;;;3.30;2.37;;;11.30;99.90;;;;;;5054198;28;20172;-83
2022/09/12 05:55:22;;;;;;;2.47;1.70;;;11.30;99.90;;;;;;5055314;28;20173;-84
2022/09/12 05:57:47;;;;;;;3.77;2.03;;;11.30;99.90;;;;;;5055185;28;20441;-83
2022/09/12 06:00:13;;;;;;;10.03;2.70;;;11.50;99.90;;;;;;5054756;28;20453;-83
2022/09/12 06:02:39;;;;;;;4.87;3.10;;;11.60;99.90;;;;;;5055520;28;20164;-85
2022/09/12 06:05:05;;;;;;;4.93;2.70;;;11.60;99.90;;;;;;5055890;28;20430;-84
2022/09/12 06:07:31;;;;;;;5.73;2.80;;;11.60;99.90;;;;;;5053761;28;20191;-85
2022/09/12 06:09:58;;;;;;;4.50;3.10;;;11.60;99.90;;;;;;5054722;28;20240;-83
2022/09/12 06:12:25;;;;;;;4.80;3.60;;;11.80;99.90;;;;;;5054731;28;20499;-83
2022/09/12 06:14:51;;;;;;;3.40;2.83;;;11.80;99.90;;;;;;5054510;28;20489;-82
2022/09/12 06:17:17;;;;;;;4.30;2.50;;;12.00;99.90;;;;;;5054606;28;20416;-82
2022/09/12 06:19:43;;;;;;;3.57;2.40;;;12.10;99.90;;;;;;5054582;28;20182;-82
2022/09/12 06:22:09;;;;;;;5.33;2.50;;;12.10;99.90;;;;;;5054561;28;20446;-82
2022/09/12 06:24:37;;;;;;;4.90;3.40;;;12.20;99.90;;;;;;5054493;28;20161;-83
2022/09/12 06:27:03;;;;;;;6.80;3.43;;;12.30;99.90;;;;;;5053045;28;20462;-83
2022/09/12 06:29:31;;;;;;;5.20;3.50;;;12.40;99.90;;;;;;5053884;28;20444;-83
2022/09/12 06:31:56;;;;;;;4.20;3.43;;;12.30;99.90;;;;;;5054097;28;20916;-83
2022/09/12 06:34:22;;;;;;;4.53;3.03;;;12.20;99.90;;;;;;5051903;28;20419;-82
2022/09/12 06:36:48;;;;;;;9.57;3.30;;;12.30;99.90;;;;;;5054297;28;20243;-83
2022/09/12 06:39:16;;;;;;;4.97;3.63;;;12.30;99.90;;;;;;5054175;28;20541;-82
2022/09/12 06:41:43;;;;;;;5.73;3.70;;;12.50;99.90;;;;;;5053923;28;20455;-82
2022/09/12 06:44:13;;;;;;;4.80;3.07;;;12.70;99.90;;;;;;5053738;28;20418;-82
2022/09/12 06:46:38;;;;;;;6.20;4.73;;;12.80;99.90;;;;;;5054079;28;20415;-82
2022/09/12 06:49:05;;;;;;;7.10;4.77;;;12.90;99.90;;;;;;5053952;28;20415;-82
2022/09/12 06:51:30;;;;;;;7.03;4.67;;;13.00;99.90;;;;;;5053890;28;20278;-82
2022/09/12 06:53:57;;;;;;;8.90;4.57;;;13.60;99.90;;;;;;5035945;28;20429;-83
2022/09/12 06:56:25;;;;;;;7.23;4.27;;;13.90;99.90;;;;;;5052618;28;20215;-82
2022/09/12 06:58:51;;;;;;;7.43;3.90;;;14.00;99.90;;;;;;5053388;28;20409;-83
2022/09/12 07:01:18;;;;;;;4.37;3.07;;;14.10;99.90;;;;;;5052454;28;20428;-82
2022/09/12 07:04:06;;;;;;;6.90;4.97;;;13.90;99.90;;;;;;5053721;28;20407;-82
2022/09/12 07:06:40;;;;;;;6.57;4.67;;;13.90;99.90;;;;;;5053713;28;20413;-82
2022/09/12 07:09:09;;;;;;;6.50;4.67;;;14.20;99.90;;;;;;5053362;28;20412;-82
2022/09/12 07:11:37;;;;;;;8.73;5.97;;;14.70;99.90;;;;;;5053316;28;20486;-82
2022/09/12 07:14:04;;;;;;;8.07;5.67;;;15.40;99.90;;;;;;5053092;28;20415;-82
2022/09/12 07:16:30;;;;;;;6.43;5.07;;;15.60;99.90;;;;;;5051904;28;20436;-82
2022/09/12 07:19:07;;;;;;;8.00;5.50;;;16.20;99.90;;;;;;5052997;28;20408;-82
2022/09/12 07:21:35;;;;;;;5.47;4.50;;;16.50;99.90;;;;;;5053324;28;20405;-82
2022/09/12 07:24:01;;;;;;;4.30;3.50;;;18.00;12.00;;;;;;5053410;28;20422;-83
2022/09/12 07:26:28;;;;;;;3.77;2.60;;;19.70;99.90;;;;;;5053298;28;20978;-82
2022/09/12 07:28:55;;;;;;;3.70;2.47;;;20.10;99.90;;;;;;5052889;28;20180;-82
2022/09/12 07:31:23;;;;;;;2.60;2.13;;;18.20;99.90;;;;;;5053116;28;20828;-82
2022/09/12 07:33:50;;;;;;;3.30;2.27;;;19.40;99.90;;;;;;5053163;28;20407;-82
2022/09/12 07:36:18;;;;;;;3.33;2.47;;;19.80;1.00;;;;;;5053020;28;20410;-82
2022/09/12 07:38:44;;;;;;;3.53;2.43;;;21.00;58.90;;;;;;5053168;28;20413;-82
2022/09/12 07:41:15;;;;;;;2.90;2.60;;;19.40;99.90;;;;;;5052977;28;20459;-83
2022/09/12 07:43:41;;;;;;;4.67;2.90;;;19.00;99.90;;;;;;5052514;28;20525;-82
2022/09/12 07:46:07;;;;;;;3.00;2.70;;;20.70;99.90;;;;;;5052743;28;20434;-82
2022/09/12 07:48:33;;;;;;;2.53;2.33;;;22.00;94.40;;;;;;5052944;28;20264;-83
2022/09/12 07:51:00;;;;;;;3.20;2.80;;;22.60;99.90;;;;;;5052920;28;20808;-83
2022/09/12 07:53:31;;;;;;;3.40;3.10;;;22.90;99.90;;;;;;5052856;28;20415;-83
2022/09/12 07:55:57;;;;;;;3.03;2.83;;;22.80;99.90;;;;;;5051672;28;20465;-82
2022/09/12 07:58:23;;;;;;;3.30;3.00;;;22.90;99.90;;;;;;5052521;28;20887;-83
2022/09/12 08:00:49;;;;;;;3.00;2.80;;;23.30;99.90;;;;;;5051602;28;20524;-83
2022/09/12 08:03:21;;;;;;;2.50;2.23;;;24.20;99.90;;;;;;5051514;28;20437;-83
2022/09/12 08:05:46;;;;;;;3.00;2.70;;;24.40;99.90;;;;;;5052697;28;20216;-83
2022/09/12 08:08:15;;;;;;;5.53;3.20;;;24.70;99.90;;;;;;5052598;28;20412;-82
2022/09/12 08:10:40;;;;;;;2.97;2.77;;;24.50;99.90;;;;;;5052599;28;20226;-84
2022/09/12 08:13:06;;;;;;;3.80;2.40;;;24.60;99.90;;;;;;5052303;28;20466;-83
2022/09/12 08:15:33;;;;;;;3.27;2.97;;;24.40;99.90;;;;;;5051358;28;20220;-83
2022/09/12 08:17:59;;;;;;;3.63;3.33;;;25.00;99.90;;;;;;5051239;28;20443;-83
2022/09/12 08:20:24;;;;;;;5.03;2.90;;;24.80;99.90;;;;;;5051153;28;20424;-83
2022/09/12 08:22:50;;;;;;;3.07;2.77;;;25.20;99.90;;;;;;5052630;28;20169;-83
2022/09/12 08:25:17;;;;;;;3.10;2.90;;;24.90;99.90;;;;;;5052451;28;20559;-83
2022/09/12 08:27:42;;;;;;;3.00;2.77;;;25.80;99.90;;;;;;5050984;28;20178;-83
2022/09/12 08:30:08;;;;;;;3.43;3.13;;;26.30;99.90;;;;;;5052450;28;20467;-83
2022/09/12 08:32:34;;;;;;;3.53;3.23;;;26.80;99.90;;;;;;5052555;28;20166;-83
2022/09/12 08:35:00;;;;;;;3.00;2.60;;;26.30;99.90;;;;;;5052489;28;20412;-83
2022/09/12 08:37:29;;;;;;;3.27;2.80;;;25.80;99.90;;;;;;5052176;28;20963;-83
2022/09/12 08:39:55;;;;;;;3.03;2.73;;;25.80;99.90;;;;;;5052511;28;20184;-83
2022/09/12 08:42:50;;;;;;;3.00;2.53;;;25.30;99.90;;;;;;5052396;28;20913;-83
2022/09/12 08:45:19;;;;;;;2.60;2.40;;;25.80;99.90;;;;;;5052486;28;20501;-83
2022/09/12 08:47:45;;;;;;;3.47;2.20;;;25.60;99.90;;;;;;5052408;28;20412;-83
2022/09/12 08:50:16;;;;;;;2.40;2.17;;;25.30;99.90;;;;;;5050992;28;20483;-83
2022/09/12 08:53:21;;;;;;;2.90;2.70;;;25.20;99.90;;;;;;5052395;28;20416;-83
2022/09/12 08:55:58;;;;;;;2.37;1.93;;;25.40;99.90;;;;;;5051866;28;20762;-83
2022/09/12 08:58:26;;;;;;;2.43;2.00;;;25.10;99.90;;;;;;5054417;28;20411;-83
2022/09/12 09:01:06;;;;;;;2.93;2.63;;;24.80;99.90;;;;;;5053408;28;20427;-83
2022/09/12 09:04:03;;;;;;;2.27;2.07;;;24.70;99.90;;;;;;5052998;28;20412;-82
2022/09/12 09:06:54;;;;;;;2.47;1.90;;;24.50;99.90;;;;;;5051563;28;20836;-84
2022/09/12 09:09:48;;;;;;;2.80;2.60;;;24.10;99.90;;;;;;5054020;28;20434;-82
2022/09/12 09:12:20;;;;;;;2.37;2.17;;;24.30;99.90;;;;;;5055176;28;20424;-83
2022/09/12 09:15:37;;;;;;;2.67;2.10;;;24.20;99.90;;;;;;5053900;28;20428;-83
2022/09/12 09:18:18;;;;;;;2.00;1.77;;;24.40;99.90;;;;;;5054015;28;20404;-87
2022/09/12 09:21:05;;;;;;;1.57;1.47;;;24.50;99.90;;;;;;5052812;28;20498;-86
2022/09/12 09:23:41;;;;;;;2.80;1.77;;;24.50;99.90;;;;;;5053639;28;20430;-86
2022/09/12 09:26:25;;;;;;;1.53;1.43;;;24.30;99.90;;;;;;5055155;28;20554;-87
2022/09/12 09:28:58;;;;;;;1.73;1.50;;;24.20;99.90;;;;;;5052962;28;20454;-86
2022/09/12 09:31:29;;;;;;;2.20;1.57;;;24.20;99.90;;;;;;5053145;28;20463;-81
2022/09/12 09:33:55;;;;;;;1.43;1.10;;;24.70;99.90;;;;;;5053776;28;20787;-80
2022/09/12 09:36:35;;;;;;;2.33;1.53;;;25.30;99.90;;;;;;5055286;28;20850;-81
2022/09/12 09:39:27;;;;;;;2.83;1.90;;;24.70;99.90;;;;;;5055283;28;20419;-82
2022/09/12 09:42:15;;;;;;;2.00;1.63;;;24.60;99.90;;;;;;5055166;28;20423;-81
2022/09/12 09:44:47;;;;;;;3.33;2.03;;;24.80;99.90;;;;;;5055241;28;20423;-81
2022/09/12 09:47:12;;;;;;;2.37;1.20;;;25.40;99.90;;;;;;5055262;28;20729;-81
2022/09/12 09:49:41;;;;;;;1.70;1.40;;;25.60;99.90;;;;;;5055127;28;20454;-81
2022/09/12 09:52:10;;;;;;;3.43;2.20;;;25.10;99.90;;;;;;5054800;28;20626;-81
2022/09/12 09:54:41;;;;;;;2.27;2.07;;;25.20;99.90;;;;;;5054998;28;20419;-81
2022/09/12 09:57:34;;;;;;;2.40;2.20;;;24.90;99.90;;;;;;5053661;28;20955;-81
2022/09/12 10:00:27;;;;;;;2.57;2.00;;;24.20;99.90;;;;;;5054878;28;20810;-82
2022/09/12 10:03:07;;;;;;;2.67;1.83;;;24.60;99.90;;;;;;5053221;28;20416;-82
2022/09/12 10:05:44;;;;;;;2.70;2.43;;;24.30;99.90;;;;;;5053706;28;20463;-82
2022/09/12 10:08:28;;;;;;;2.83;2.10;;;24.40;99.90;;;;;;5054287;28;20414;-81
2022/09/12 10:11:06;;;;;;;3.53;2.47;;;23.90;99.90;;;;;;5052742;28;20843;-81
2022/09/12 10:13:53;;;;;;;1.73;1.43;;;24.40;99.90;;;;;;5048176;28;20473;-81
2022/09/12 10:16:33;;;;;;;4.03;1.67;;;23.80;99.90;;;;;;5050120;28;20609;-81
2022/09/12 10:19:03;;;;;;;2.17;1.97;;;24.10;99.90;;;;;;5053488;28;20420;-82
2022/09/12 10:21:49;;;;;;;1.97;1.30;;;24.40;99.90;;;;;;5054060;28;20791;-81
2022/09/12 10:24:35;;;;;;;3.10;1.40;;;24.30;99.90;;;;;;5054444;28;20450;-81
2022/09/12 10:27:23;;;;;;;1.70;1.40;;;24.70;99.90;;;;;;5064233;28;20420;-80
2022/09/12 10:30:18;;;;;;;1.13;0.60;;;24.30;99.90;;;;;;5053302;28;20423;-81
2022/09/12 10:32:49;;;;;;;1.13;0.40;;;24.20;99.90;;;;;;5054288;28;20428;-82
2022/09/12 10:35:20;;;;;;;1.40;1.00;;;24.30;99.90;;;;;;5051819;28;20420;-81
2022/09/12 10:37:58;;;;;;;1.80;0.40;;;24.20;99.90;;;;;;5053862;28;20436;-82
2022/09/12 10:40:31;;;;;;;2.40;0.73;;;24.60;99.90;;;;;;5053422;28;20415;-82
2022/09/12 10:43:01;;;;;;;1.43;0.47;;;24.80;99.90;;;;;;5051384;28;21054;-81
2022/09/12 10:45:36;;;;;;;3.70;1.50;;;24.60;99.90;;;;;;5053430;28;20405;-81
2022/09/12 10:48:25;;;;;;;0.80;0.33;;;24.40;99.90;;;;;;5053514;28;20435;-82
2022/09/12 10:50:50;;;;;;;0.60;0.30;;;24.30;90.40;;;;;;5047405;28;21105;-81
2022/09/12 10:53:40;;;;;;;0.87;0.20;;;24.20;99.90;;;;;;5053346;28;20495;-82
2022/09/12 10:56:08;;;;;;;1.10;0.20;;;24.60;89.10;;;;;;5052761;28;20197;-81
2022/09/12 10:58:55;;;;;;;0.70;0.23;;;24.60;93.70;;;;;;5052846;28;20420;-81
2022/09/12 11:01:39;;;;;;;0.90;0.30;;;24.70;87.40;;;;;;5052216;28;20412;-83
2022/09/12 11:04:26;;;;;;;1.13;0.30;;;24.70;66.60;;;;;;5053723;28;20414;-81
2022/09/12 11:07:03;;;;;;;1.37;0.30;;;24.70;63.70;;;;;;5053773;28;20931;-82
2022/09/12 11:09:37;;;;;;;0.40;0.20;;;24.70;82.20;;;;;;5050796;28;20422;-82
2022/09/12 11:12:17;;;;;;;0.90;0.30;;;24.60;94.70;;;;;;5051260;28;20813;-81
2022/09/12 11:14:58;;;;;;;1.13;0.30;;;24.80;93.40;;;;;;5053287;28;20455;-81
2022/09/12 11:17:43;;;;;;;1.53;0.30;;;25.00;94.20;;;;;;5053493;28;20408;-82
2022/09/12 11:20:33;;;;;;;0.50;0.43;;;25.20;73.60;;;;;;5051424;28;20494;-82
2022/09/12 11:23:22;;;;;;;1.30;0.20;;;25.30;86.10;;;;;;5052795;28;20427;-81
2022/09/12 11:25:56;;;;;;;1.50;0.40;;;25.30;99.90;;;;;;5053103;28;20951;-81
2022/09/12 11:28:54;;;;;;;0.90;0.50;;;25.20;83.90;;;;;;5052503;28;20418;-81
2022/09/12 11:31:50;;;;;;;1.00;0.43;;;24.90;95.90;;;;;;5052449;28;20464;-80
2022/09/12 11:34:27;;;;;;;1.13;0.33;;;24.70;71.50;;;;;;5051328;28;20431;-81
2022/09/12 11:37:44;;;;;;;1.50;0.20;;;24.60;88.60;;;;;;5052594;28;20504;-81
2022/09/12 11:40:26;;;;;;;1.30;0.30;;;24.20;73.50;;;;;;5052485;28;20485;-81
2022/09/12 11:42:56;;;;;;;0.50;0.20;;;24.10;97.00;;;;;;5052375;28;20928;-81
2022/09/12 11:45:28;;;;;;;0.70;0.30;;;24.00;99.90;;;;;;5052799;28;20419;-81
2022/09/12 11:47:58;;;;;;;0.97;0.40;;;23.90;99.90;;;;;;5052854;28;20427;-81
2022/09/12 11:50:28;;;;;;;0.70;0.27;;;24.30;96.80;;;;;;5051619;28;20471;-80
2022/09/12 11:53:02;;;;;;;0.80;0.40;;;24.40;99.90;;;;;;5052840;28;20454;-81
2022/09/12 11:55:37;;;;;;;0.57;0.20;;;24.50;99.90;;;;;;5051331;28;20417;-80
2022/09/12 11:58:04;;;;;;;0.60;0.30;;;24.50;99.90;;;;;;5052454;28;20412;-82
2022/09/12 12:00:35;;;;;;;1.10;0.50;;;24.30;83.90;;;;;;5052749;28;20451;-81
2022/09/12 12:03:08;;;;;;;1.10;0.43;;;24.10;95.60;;;;;;5053082;28;20412;-80
2022/09/12 12:05:43;;;;;;;0.63;0.30;;;23.80;98.70;;;;;;5051460;28;20740;-81
2022/09/12 12:08:11;;;;;;;0.90;0.57;;;23.90;99.90;;;;;;5051451;28;20426;-81
2022/09/12 12:10:43;;;;;;;0.87;0.23;;;23.90;99.90;;;;;;5052326;28;20476;-80
2022/09/12 12:13:27;;;;;;;2.50;0.50;;;24.00;99.90;;;;;;5051571;28;20847;-81
2022/09/12 12:15:58;;;;;;;0.73;0.40;;;24.20;99.90;;;;;;5050135;28;20412;-81
2022/09/12 12:18:26;;;;;;;0.80;0.37;;;24.40;99.90;;;;;;5052312;28;20416;-81
2022/09/12 12:21:14;;;;;;;0.40;0.20;;;24.80;99.90;;;;;;5051165;28;20490;-81
2022/09/12 12:23:40;;;;;;;0.70;0.20;;;25.00;99.90;;;;;;5050525;28;20435;-81
2022/09/12 12:26:38;;;;;;;0.90;0.30;;;25.00;84.40;;;;;;5051969;28;20415;-81
2022/09/12 12:29:07;;;;;;;0.80;0.27;;;24.70;99.00;;;;;;5051399;28;20418;-81
2022/09/12 12:32:08;;;;;;;0.60;0.20;;;24.90;85.50;;;;;;5052148;28;20537;-81
2022/09/12 12:34:34;;;;;;;0.70;0.30;;;24.80;95.30;;;;;;5054296;28;20503;-81
2022/09/12 12:37:20;;;;;;;1.13;0.50;;;24.30;82.40;;;;;;5055892;28;20923;-81
2022/09/12 12:39:46;;;;;;;1.20;0.60;;;24.30;87.70;;;;;;5031914;28;20424;-81
2022/09/12 12:42:33;;;;;;;1.53;0.20;;;24.40;92.40;;;;;;5055361;28;20412;-81
2022/09/12 12:45:00;;;;;;;0.90;0.40;;;24.80;91.20;;;;;;5055152;28;20416;-81
2022/09/12 12:47:35;;;;;;;1.00;0.60;;;25.10;86.60;;;;;;5053132;28;20404;-81
2022/09/12 12:50:18;;;;;;;2.67;0.37;;;25.40;63.20;;;;;;5055548;28;20411;-81
2022/09/12 12:53:01;;;;;;;0.67;0.30;;;25.50;65.00;;;;;;5055416;28;20443;-81
2022/09/12 12:55:31;;;;;;;0.80;0.30;;;24.90;83.90;;;;;;5052145;28;20431;-80
2022/09/12 12:57:59;;;;;;;1.73;0.40;;;24.70;85.10;;;;;;5054147;28;20511;-81
2022/09/12 13:00:26;;;;;;;0.80;0.43;;;24.60;95.70;;;;;;5056100;28;20515;-81
2022/09/12 13:03:08;;;;;;;0.60;0.20;;;24.60;99.90;;;;;;5055100;28;20430;-80
2022/09/12 13:05:49;;;;;;;0.60;0.20;;;24.50;73.40;;;;;;5075649;28;20482;-81
2022/09/12 13:08:17;;;;;;;1.93;0.40;;;24.10;99.90;;;;;;5052160;28;20513;-81
2022/09/12 13:11:12;;;;;;;0.50;0.30;;;23.80;99.90;;;;;;5053802;28;20825;-82
2022/09/12 13:13:49;;;;;;;0.70;0.20;;;24.00;96.60;;;;;;5050721;28;20786;-81
2022/09/12 13:16:48;;;;;;;0.60;0.20;;;23.70;96.60;;;;;;5050440;28;20408;-80
2022/09/12 13:19:19;;;;;;;0.80;0.47;;;23.80;99.90;;;;;;5045789;28;20801;-81
2022/09/12 13:21:55;;;;;;;0.70;0.40;;;23.90;99.90;;;;;;5054401;28;20472;-82